Time;durP1;ratioP1;P1;durP2;ratioP2;P2;SDS_P1;SDS_P2;PMS_P1;PMS_P2;Temp;Humidity;BMP_temperature;BMP_pressure;BME280_temperature;BME280_humidity;BME280_pressure;Samples;Min_cycle;Max_cycle;Signal;HPM_P1;HPM_P2
2023/12/04 00:00:22;;;;;;;12.83;9.23;;;;;;;-3.70;76.92;95389.66;5011549;28;20198;-85
2023/12/04 00:02:49;;;;;;;12.63;8.97;;;;;;;-3.82;77.35;95388.69;5010133;28;20202;-86
2023/12/04 00:05:16;;;;;;;12.30;8.57;;;;;;;-3.82;77.58;95403.78;5011873;28;20198;-86
2023/12/04 00:07:42;;;;;;;12.40;9.30;;;;;;;-3.85;78.07;95407.28;5011340;28;20619;-86
2023/12/04 00:10:12;;;;;;;12.23;9.03;;;;;;;-3.80;77.42;95391.13;5029043;28;20212;-85
2023/12/04 00:12:48;;;;;;;12.30;9.63;;;;;;;-3.78;76.82;95370.00;5015722;28;20199;-86
2023/12/04 00:15:17;;;;;;;13.23;9.53;;;;;;;-3.84;76.68;95350.25;5014814;28;20692;-85
2023/12/04 00:17:45;;;;;;;13.63;9.53;;;;;;;-3.88;77.05;95362.25;5021454;28;20689;-86
2023/12/04 00:20:12;;;;;;;12.97;9.90;;;;;;;-4.06;77.00;95355.81;5011464;28;20216;-85
2023/12/04 00:22:42;;;;;;;13.00;9.67;;;;;;;-4.08;77.33;95365.16;5011638;28;20197;-85
2023/12/04 00:27:53;;;;;;;12.17;8.57;;;;;;;-4.03;77.49;95379.94;5008859;28;20222;-85
2023/12/04 00:30:25;;;;;;;15.13;9.83;;;;;;;-4.16;77.41;95354.75;5012372;28;20213;-86
2023/12/04 00:32:55;;;;;;;15.67;11.47;;;;;;;-4.08;77.46;95359.31;5012006;28;20236;-86
2023/12/04 00:35:21;;;;;;;13.00;9.27;;;;;;;-4.01;77.32;95345.47;5010580;28;20600;-85
2023/12/04 00:37:48;;;;;;;12.87;9.23;;;;;;;-3.86;76.59;95339.50;5011608;28;20231;-85
2023/12/04 00:40:14;;;;;;;12.17;8.70;;;;;;;-3.83;76.45;95326.72;5011626;28;20193;-85
2023/12/04 00:42:47;;;;;;;11.43;8.37;;;;;;;-3.78;75.99;95318.91;5011235;28;20210;-85
2023/12/04 00:45:16;;;;;;;13.10;9.57;;;;;;;-3.64;75.62;95314.59;5011340;28;20202;-86
2023/12/04 00:47:52;;;;;;;10.73;8.33;;;;;;;-3.54;75.16;95295.50;5010933;28;20215;-86
2023/12/04 00:50:21;;;;;;;11.93;8.80;;;;;;;-3.45;74.47;95261.41;5000897;28;20201;-85
2023/12/04 00:52:49;;;;;;;13.73;8.20;;;;;;;-3.43;73.80;95236.13;5011527;28;20209;-85
2023/12/04 00:55:15;;;;;;;11.47;8.43;;;;;;;-3.43;73.49;95216.00;5014611;28;20203;-86
2023/12/04 00:57:42;;;;;;;11.40;8.77;;;;;;;-3.46;73.48;95203.66;5014613;28;20247;-85
2023/12/04 01:00:10;;;;;;;10.57;7.80;;;;;;;-3.53;73.80;95201.53;5015055;28;20198;-85
2023/12/04 01:02:43;;;;;;;10.93;8.47;;;;;;;-3.55;73.62;95205.03;5014246;28;20778;-85
2023/12/04 01:05:12;;;;;;;11.57;8.90;;;;;;;-3.67;74.15;95213.41;5015917;28;20571;-84
2023/12/04 01:07:45;;;;;;;10.70;8.20;;;;;;;-3.77;74.58;95222.44;5013749;28;20234;-86
2023/12/04 01:10:14;;;;;;;9.63;7.40;;;;;;;-3.82;74.69;95240.31;5015127;28;20202;-86
2023/12/04 01:12:40;;;;;;;11.67;8.10;;;;;;;-3.95;75.04;95249.56;5015217;28;20696;-85
2023/12/04 01:15:09;;;;;;;9.70;7.90;;;;;;;-3.99;75.31;95265.72;5016255;28;20402;-86
2023/12/04 01:17:36;;;;;;;9.83;7.63;;;;;;;-3.92;75.42;95269.47;5034893;28;20226;-86
2023/12/04 01:20:04;;;;;;;9.37;7.30;;;;;;;-3.85;75.07;95270.72;5035439;28;20255;-86
2023/12/04 01:22:31;;;;;;;9.63;7.23;;;;;;;-3.86;74.95;95252.31;5018692;28;20209;-86
2023/12/04 01:24:58;;;;;;;8.93;7.33;;;;;;;-3.95;75.03;95239.50;5015505;28;20226;-85
2023/12/04 01:27:24;;;;;;;9.57;6.77;;;;;;;-3.94;75.09;95257.00;5013981;28;20253;-85
2023/12/04 01:29:51;;;;;;;10.33;7.97;;;;;;;-3.97;74.87;95243.81;5014764;28;20198;-84
2023/12/04 01:32:20;;;;;;;10.63;7.27;;;;;;;-3.87;75.09;95258.25;5014414;28;20200;-85
2023/12/04 01:34:49;;;;;;;10.47;7.40;;;;;;;-3.82;74.60;95227.75;5014090;28;20201;-86
2023/12/04 01:37:20;;;;;;;10.00;7.30;;;;;;;-3.91;74.23;95205.72;5028190;28;20224;-86
2023/12/04 01:39:49;;;;;;;9.87;7.60;;;;;;;-3.92;74.29;95201.59;5012797;28;20235;-85
2023/12/04 01:42:15;;;;;;;10.53;7.10;;;;;;;-3.94;74.51;95198.38;5014140;28;20191;-85
2023/12/04 01:44:42;;;;;;;8.43;7.00;;;;;;;-3.75;74.10;95200.50;5014123;28;20280;-86
2023/12/04 01:47:09;;;;;;;10.47;6.90;;;;;;;-3.67;73.81;95173.97;5013598;28;20759;-85
2023/12/04 01:49:36;;;;;;;9.67;6.77;;;;;;;-3.59;73.05;95143.25;5013936;28;20191;-86
2023/12/04 01:52:04;;;;;;;10.20;6.73;;;;;;;-3.70;72.97;95118.81;5012949;28;20288;-84
2023/12/04 01:54:41;;;;;;;8.97;6.70;;;;;;;-3.79;72.98;95111.88;5012707;28;20199;-85
2023/12/04 01:57:19;;;;;;;8.33;6.53;;;;;;;-3.86;73.17;95124.06;5013779;28;20240;-84
2023/12/04 01:59:46;;;;;;;9.50;6.90;;;;;;;-3.81;73.05;95131.28;5014376;28;20203;-85
2023/12/04 02:02:13;;;;;;;9.93;6.47;;;;;;;-3.79;72.75;95111.88;5013940;28;20216;-86
2023/12/04 02:04:40;;;;;;;7.93;6.63;;;;;;;-3.79;72.83;95101.81;5013405;28;20203;-85
2023/12/04 02:07:07;;;;;;;9.17;6.47;;;;;;;-3.92;72.92;95081.72;5004837;28;20232;-86
2023/12/04 02:09:38;;;;;;;9.13;6.23;;;;;;;-3.96;73.17;95087.03;5013691;28;20669;-86
2023/12/04 02:12:09;;;;;;;7.60;5.80;;;;;;;-4.08;73.51;95095.41;5013557;28;20211;-85
2023/12/04 02:14:35;;;;;;;7.77;5.97;;;;;;;-4.15;74.03;95097.50;5014658;28;20247;-86
2023/12/04 02:17:03;;;;;;;7.73;6.00;;;;;;;-4.24;74.23;95118.22;5013829;28;20277;-85
2023/12/04 02:19:30;;;;;;;6.97;6.00;;;;;;;-4.18;74.49;95120.31;5013103;28;20557;-85
2023/12/04 02:21:57;;;;;;;7.53;5.50;;;;;;;-4.11;74.37;95144.16;5013671;28;20216;-86
2023/12/04 02:24:25;;;;;;;7.77;5.50;;;;;;;-4.01;74.32;95132.59;5013262;28;20200;-85
2023/12/04 02:26:56;;;;;;;7.70;5.80;;;;;;;-3.98;74.19;95122.34;5010994;28;20217;-86
2023/12/04 02:29:26;;;;;;;5.93;4.83;;;;;;;-4.02;73.92;95107.56;5013296;28;20219;-85
2023/12/04 02:31:56;;;;;;;8.87;5.07;;;;;;;-4.02;74.26;95122.63;5013927;28;20209;-85
2023/12/04 02:34:24;;;;;;;4.90;4.27;;;;;;;-4.09;74.57;95127.28;5013806;28;20209;-86
2023/12/04 02:36:52;;;;;;;6.27;4.90;;;;;;;-4.07;74.48;95132.19;5032991;28;20228;-85
2023/12/04 02:39:19;;;;;;;7.03;5.13;;;;;;;-3.98;74.37;95127.38;5032883;28;20268;-85
2023/12/04 02:41:51;;;;;;;6.50;4.80;;;;;;;-3.95;74.13;95111.28;5033245;28;20287;-85
2023/12/04 02:44:18;;;;;;;6.10;4.73;;;;;;;-3.99;74.07;95104.84;5011697;28;20195;-86
2023/12/04 02:46:45;;;;;;;6.43;5.23;;;;;;;-3.98;73.76;95102.22;5012520;28;20227;-86
2023/12/04 02:49:11;;;;;;;6.00;4.97;;;;;;;-3.91;73.96;95107.66;5013372;28;20201;-86
2023/12/04 02:51:41;;;;;;;7.07;5.10;;;;;;;-3.77;73.77;95101.72;5012707;28;20295;-85
2023/12/04 02:54:10;;;;;;;6.80;5.50;;;;;;;-3.73;73.06;95071.25;5012020;28;20201;-85
2023/12/04 02:56:36;;;;;;;6.83;4.93;;;;;;;-3.69;72.92;95069.34;5012574;28;20703;-86
2023/12/04 02:59:04;;;;;;;6.53;5.27;;;;;;;-3.61;72.66;95054.50;5011082;28;20210;-86
2023/12/04 03:01:31;;;;;;;6.90;5.37;;;;;;;-3.62;71.86;95018.50;5012109;28;20207;-86
2023/12/04 03:03:57;;;;;;;5.83;4.67;;;;;;;-3.59;72.01;95005.72;5012335;28;20254;-85
2023/12/04 03:06:26;;;;;;;6.90;4.77;;;;;;;-3.63;71.69;94986.69;5012332;28;20917;-85
2023/12/04 03:09:03;;;;;;;6.07;4.80;;;;;;;-3.66;71.58;94974.34;5012630;28;20202;-86
2023/12/04 03:11:30;;;;;;;6.97;4.90;;;;;;;-3.59;71.89;94979.75;5019088;28;20209;-87
2023/12/04 03:13:56;;;;;;;6.00;4.47;;;;;;;-3.56;71.89;94966.97;5021458;28;20202;-85
2023/12/04 03:16:24;;;;;;;7.43;5.00;;;;;;;-3.51;71.56;94959.91;5007004;28;20226;-85
2023/12/04 03:18:50;;;;;;;6.53;4.97;;;;;;;-3.51;71.66;94960.72;5012542;28;20208;-86
2023/12/04 03:21:20;;;;;;;6.27;4.93;;;;;;;-3.45;71.71;94964.50;5016818;28;20189;-85
2023/12/04 03:23:49;;;;;;;6.63;5.20;;;;;;;-3.49;71.32;94938.78;5023476;28;20202;-85
2023/12/04 03:26:15;;;;;;;6.23;4.87;;;;;;;-3.47;71.06;94931.13;5012622;28;20209;-86
2023/12/04 03:28:42;;;;;;;5.73;4.87;;;;;;;-3.43;71.23;94921.63;5011845;28;20216;-85
2023/12/04 03:31:08;;;;;;;5.67;4.60;;;;;;;-3.43;70.90;94914.06;5009000;28;20205;-85
2023/12/04 03:33:36;;;;;;;5.13;4.20;;;;;;;-3.40;70.52;94917.16;5012628;28;20543;-85
2023/12/04 03:36:05;;;;;;;6.67;5.00;;;;;;;-3.37;70.67;94906.09;5012108;28;20206;-86
2023/12/04 03:38:31;;;;;;;6.47;4.93;;;;;;;-3.30;70.49;94912.31;5012184;28;20245;-86
2023/12/04 03:40:58;;;;;;;8.17;5.17;;;;;;;-3.30;70.26;94880.41;5012556;28;20290;-85
2023/12/04 03:43:24;;;;;;;6.37;5.10;;;;;;;-3.26;70.23;94881.75;5011606;28;20286;-85
2023/12/04 03:45:51;;;;;;;7.60;5.50;;;;;;;-3.34;70.35;94873.16;5012485;28;20202;-85
2023/12/04 03:48:17;;;;;;;7.17;6.37;;;;;;;-3.31;69.84;94875.47;5005632;28;20725;-86
2023/12/04 03:50:45;;;;;;;8.63;6.73;;;;;;;-3.40;69.16;94826.59;5010058;28;20291;-86
2023/12/04 03:53:12;;;;;;;10.30;7.53;;;;;;;-3.45;68.97;94798.44;4991927;28;20207;-85
2023/12/04 03:55:38;;;;;;;9.53;7.20;;;;;;;-3.47;68.68;94784.41;4992363;28;20591;-86
2023/12/04 03:58:05;;;;;;;9.83;7.23;;;;;;;-3.64;68.10;94745.34;5011392;28;20237;-86
2023/12/04 04:00:31;;;;;;;8.57;6.77;;;;;;;-3.66;68.55;94753.03;5011926;28;20213;-85
2023/12/04 04:02:58;;;;;;;11.00;7.77;;;;;;;-3.87;68.73;94734.47;5024265;28;20215;-84
2023/12/04 04:05:24;;;;;;;9.50;7.43;;;;;;;-3.82;69.23;94765.06;5011019;28;20206;-85
2023/12/04 04:07:52;;;;;;;10.37;7.63;;;;;;;-4.08;68.46;94734.28;5011443;28;20229;-85
2023/12/04 04:10:18;;;;;;;10.70;7.70;;;;;;;-4.08;69.19;94756.91;5012393;28;20208;-86
2023/12/04 04:12:48;;;;;;;10.53;7.77;;;;;;;-4.09;69.15;94754.50;5011779;28;20220;-85
2023/12/04 04:15:14;;;;;;;10.07;7.83;;;;;;;-4.15;68.85;94753.22;5011626;28;20206;-86
2023/12/04 04:17:41;;;;;;;10.97;8.50;;;;;;;-4.18;69.13;94748.38;5011169;28;20221;-85
2023/12/04 04:20:12;;;;;;;10.87;8.30;;;;;;;-4.26;68.79;94745.63;5013199;28;20194;-85
2023/12/04 04:22:48;;;;;;;12.17;8.63;;;;;;;-4.50;69.65;94753.16;5025659;28;20266;-86
2023/12/04 04:25:16;;;;;;;10.40;7.90;;;;;;;-4.71;69.80;94770.50;5025595;28;20202;-86
2023/12/04 04:27:42;;;;;;;13.97;8.90;;;;;;;-4.64;69.90;94778.44;5013677;28;20713;-85
2023/12/04 04:30:10;;;;;;;11.40;8.67;;;;;;;-4.56;70.16;94792.03;5015678;28;20203;-86
2023/12/04 04:32:37;;;;;;;11.37;8.53;;;;;;;-4.51;69.49;94761.59;5029366;28;20467;-86
2023/12/04 04:35:04;;;;;;;12.20;8.40;;;;;;;-4.45;69.16;94752.84;5028287;28;20197;-86
2023/12/04 04:37:30;;;;;;;11.80;9.20;;;;;;;-4.49;69.68;94761.50;5014994;28;20235;-85
2023/12/04 04:39:57;;;;;;;11.50;8.77;;;;;;;-4.46;69.09;94748.72;5014901;28;20202;-86
2023/12/04 04:42:24;;;;;;;13.63;9.07;;;;;;;-4.35;68.67;94741.25;5026165;28;20204;-86
2023/12/04 04:44:51;;;;;;;11.77;8.30;;;;;;;-4.29;67.99;94693.09;5018614;28;20202;-86
2023/12/04 04:47:17;;;;;;;10.40;7.57;;;;;;;-4.31;67.62;94663.03;5015156;28;20236;-85
2023/12/04 04:49:44;;;;;;;15.27;8.30;;;;;;;-4.45;66.96;94634.81;5014263;28;20198;-86
2023/12/04 04:52:10;;;;;;;11.53;8.43;;;;;;;-4.49;67.36;94640.94;5013368;28;20745;-85
2023/12/04 04:54:37;;;;;;;10.07;8.07;;;;;;;-4.47;67.47;94639.94;5015444;28;20588;-85
2023/12/04 04:57:03;;;;;;;11.70;7.63;;;;;;;-4.35;67.45;94643.25;5011357;28;20223;-86
2023/12/04 04:59:32;;;;;;;14.23;8.07;;;;;;;-3.67;95.10;95321.56;5017241;28;20205;-85
2023/12/04 05:01:57;;;;;;;15.80;11.03;;;;;;;-2.90;100.00;95690.97;5020375;28;20613;-86
2023/12/04 05:04:24;;;;;;;11.17;8.50;;;;;;;-2.98;100.00;95585.66;5015994;28;20217;-86
2023/12/04 05:06:55;;;;;;;9.40;7.47;;;;;;;-3.35;78.15;94917.66;5015617;28;20231;-86
2023/12/04 05:09:24;;;;;;;9.80;7.40;;;;;;;-3.63;71.60;94629.53;5011209;28;20222;-86
2023/12/04 05:11:50;;;;;;;8.73;7.43;;;;;;;-3.91;70.27;94532.75;5016295;28;20245;-86
2023/12/04 05:14:17;;;;;;;11.33;7.17;;;;;;;-4.01;69.84;94509.22;5016280;28;20218;-86
2023/12/04 05:16:44;;;;;;;10.37;7.07;;;;;;;-4.03;69.62;94487.63;5015959;28;20219;-85
2023/12/04 05:19:11;;;;;;;9.77;6.97;;;;;;;-4.10;69.29;94459.66;5014538;28;20218;-85
2023/12/04 05:21:37;;;;;;;11.23;7.33;;;;;;;-4.18;69.07;94456.91;5015437;28;20209;-85
2023/12/04 05:24:04;;;;;;;11.67;8.13;;;;;;;-4.32;69.48;94482.28;5013086;28;20198;-87
2023/12/04 05:26:32;;;;;;;11.70;7.77;;;;;;;-4.37;70.61;94542.09;5014337;28;20226;-86
2023/12/04 05:28:58;;;;;;;11.13;7.63;;;;;;;-4.30;70.75;94556.63;5023041;28;20203;-85
2023/12/04 05:31:25;;;;;;;9.73;7.60;;;;;;;-4.29;69.14;94480.34;5019096;28;20252;-86
2023/12/04 05:33:53;;;;;;;9.77;6.73;;;;;;;-4.41;69.39;94496.31;5034098;28;20573;-87
2023/12/04 05:36:19;;;;;;;9.47;7.20;;;;;;;-4.40;69.89;94528.03;5018733;28;20568;-87
2023/12/04 05:38:46;;;;;;;9.77;7.57;;;;;;;-4.47;68.91;94468.34;5014607;28;20219;-87
2023/12/04 05:41:12;;;;;;;10.37;7.40;;;;;;;-4.56;69.66;94503.25;5010881;28;20212;-86
2023/12/04 05:43:41;;;;;;;10.97;7.77;;;;;;;-4.49;71.15;94604.06;5015053;28;20249;-86
2023/12/04 05:46:08;;;;;;;9.43;7.23;;;;;;;-4.40;70.23;94563.22;5016550;28;20211;-87
2023/12/04 05:48:34;;;;;;;10.73;7.53;;;;;;;-4.34;69.50;94519.28;5012936;28;20215;-87
2023/12/04 05:51:02;;;;;;;10.90;7.80;;;;;;;-4.35;69.02;94498.38;5015604;28;20195;-86
2023/12/04 05:53:31;;;;;;;7.33;5.90;;;;;;;-4.36;70.53;94554.53;5016215;28;20285;-86
2023/12/04 05:56:03;;;;;;;8.30;6.40;;;;;;;-4.29;70.60;94588.38;5012795;28;20221;-86
2023/12/04 05:58:30;;;;;;;8.20;6.43;;;;;;;-4.29;70.42;94575.81;5014343;28;20786;-86
2023/12/04 06:00:56;;;;;;;18.40;12.83;;;;;;;-4.29;70.28;94560.72;5014636;28;20201;-86
2023/12/04 06:03:23;;;;;;;17.73;12.43;;;;;;;-4.26;70.10;94539.63;5014815;28;20202;-86
2023/12/04 06:05:51;;;;;;;9.63;6.83;;;;;;;-4.21;70.06;94550.09;5014176;28;20245;-87
2023/12/04 06:08:24;;;;;;;13.20;7.80;;;;;;;-4.20;70.30;94555.03;5013728;28;20241;-86
2023/12/04 06:11:02;;;;;;;15.30;8.90;;;;;;;-4.19;70.39;94560.84;5014363;28;20818;-85
2023/12/04 06:13:30;;;;;;;15.00;8.93;;;;;;;-4.12;70.21;94554.47;5012780;28;20209;-87
2023/12/04 06:15:59;;;;;;;13.40;9.03;;;;;;;-4.11;69.36;94527.63;5014346;28;20203;-87
2023/12/04 06:18:29;;;;;;;13.93;9.50;;;;;;;-4.03;69.08;94497.69;5013947;28;20588;-87
2023/12/04 06:20:55;;;;;;;14.97;9.40;;;;;;;-4.00;69.00;94489.91;5014257;28;20210;-86
2023/12/04 06:23:24;;;;;;;16.77;10.23;;;;;;;-4.02;69.31;94497.56;5014340;28;20205;-87
2023/12/04 06:25:51;;;;;;;46.17;28.00;;;;;;;-3.99;69.39;94507.38;5014430;28;20288;-86
2023/12/04 06:28:19;;;;;;;29.87;17.00;;;;;;;-3.97;69.31;94503.06;5012119;28;20566;-86
2023/12/04 06:30:54;;;;;;;13.43;9.63;;;;;;;-3.92;68.71;94485.13;5013724;28;20235;-86
2023/12/04 06:33:29;;;;;;;12.20;8.83;;;;;;;-3.99;67.77;94437.00;5014408;28;20198;-86
2023/12/04 06:35:59;;;;;;;11.60;8.70;;;;;;;-4.01;68.07;94421.25;5013642;28;20205;-86
2023/12/04 06:38:39;;;;;;;12.20;8.80;;;;;;;-4.01;67.62;94400.34;5013431;28;20237;-85
2023/12/04 06:41:09;;;;;;;11.17;8.60;;;;;;;-4.12;67.04;94358.47;5014083;28;20301;-86
2023/12/04 06:43:35;;;;;;;9.93;7.67;;;;;;;-4.29;67.10;94339.66;5014237;28;20265;-85
2023/12/04 06:46:06;;;;;;;12.30;7.67;;;;;;;-4.02;87.27;94955.03;5012917;28;20216;-87
2023/12/04 06:48:34;;;;;;;10.90;7.93;;;;;;;-4.10;73.03;94674.97;5013499;28;20278;-86
2023/12/04 06:51:00;;;;;;;10.67;8.23;;;;;;;-4.03;69.98;94506.00;5013804;28;20834;-86
2023/12/04 06:53:31;;;;;;;10.43;7.63;;;;;;;-4.00;68.59;94429.59;5013068;28;20205;-87
2023/12/04 06:55:58;;;;;;;11.23;8.53;;;;;;;-4.10;67.01;94341.56;5014556;28;20259;-86
2023/12/04 06:58:25;;;;;;;12.50;8.63;;;;;;;-4.50;66.13;94258.44;5013355;28;20370;-85
2023/12/04 07:00:53;;;;;;;11.93;8.93;;;;;;;-4.43;66.82;94307.28;5012343;28;20206;-87
2023/12/04 07:03:22;;;;;;;12.67;9.30;;;;;;;-4.39;66.60;94296.06;5013345;28;20300;-86
2023/12/04 07:05:50;;;;;;;13.13;9.03;;;;;;;-4.41;65.85;94257.69;5014230;28;20204;-86
2023/12/04 07:08:17;;;;;;;12.07;8.90;;;;;;;-4.34;65.76;94240.44;5013545;28;20313;-85
2023/12/04 07:10:44;;;;;;;12.33;9.43;;;;;;;-4.29;65.31;94220.78;5014319;28;20201;-86
2023/12/04 07:13:12;;;;;;;12.03;8.93;;;;;;;-4.29;64.75;94201.50;5015033;28;20236;-88
2023/12/04 07:15:41;;;;;;;16.80;10.17;;;;;;;-4.27;64.97;94207.19;5015196;28;20229;-88
2023/12/04 07:18:13;;;;;;;18.00;11.80;;;;;;;-4.26;65.16;94213.81;5005757;28;20231;-86
2023/12/04 07:20:40;;;;;;;14.97;10.10;;;;;;;-4.21;65.21;94205.91;5014461;28;20208;-87
2023/12/04 07:23:06;;;;;;;13.60;9.53;;;;;;;-4.33;64.70;94177.53;5015893;28;20261;-87
2023/12/04 07:25:33;;;;;;;16.97;11.07;;;;;;;-4.66;65.27;94186.00;5015897;28;20209;-87
2023/12/04 07:28:08;;;;;;;14.83;10.83;;;;;;;-4.66;66.28;94240.44;5015456;28;20229;-87
2023/12/04 07:30:37;;;;;;;19.57;13.20;;;;;;;-5.15;67.98;94284.28;5015740;28;20221;-86
2023/12/04 07:33:04;;;;;;;19.23;12.40;;;;;;;-5.31;69.19;94366.59;5012957;28;20196;-87
2023/12/04 07:35:33;;;;;;;16.03;11.93;;;;;;;-5.27;69.80;94421.44;5007349;28;20211;-88
2023/12/04 07:38:00;;;;;;;19.37;13.87;;;;;;;-5.04;69.37;94429.03;4996947;28;20225;-86
2023/12/04 07:40:29;;;;;;;17.03;12.53;;;;;;;-4.81;69.44;94437.41;4997792;28;20204;-87
2023/12/04 07:42:58;;;;;;;21.13;12.13;;;;;;;-4.57;69.25;94440.59;5016034;28;20211;-87
2023/12/04 07:45:28;;;;;;;18.10;11.70;;;;;;;-4.47;69.13;94423.13;5015475;28;20200;-86
2023/12/04 07:47:55;;;;;;;16.07;11.07;;;;;;;-4.43;68.69;94399.41;5015014;28;20246;-87
2023/12/04 07:50:22;;;;;;;15.70;11.07;;;;;;;-4.50;68.79;94403.28;5013574;28;20206;-86
2023/12/04 07:52:54;;;;;;;19.67;11.20;;;;;;;-4.46;68.91;94400.44;5013412;28;20734;-87
2023/12/04 07:55:23;;;;;;;19.20;11.70;;;;;;;-4.46;69.07;94410.47;5013856;28;20204;-87
2023/12/04 07:57:50;;;;;;;17.87;11.97;;;;;;;-4.39;69.14;94446.75;5013692;28;22190;-89
2023/12/04 08:00:17;;;;;;;15.97;11.20;;;;;;;-4.20;68.62;94448.69;5014686;28;20202;-87
2023/12/04 08:02:46;;;;;;;13.40;10.53;;;;;;;-4.03;67.68;94402.16;5014090;28;20200;-87
2023/12/04 08:05:13;;;;;;;13.93;10.50;;;;;;;-4.00;66.69;94349.16;5011768;28;20598;-87
2023/12/04 08:07:39;;;;;;;14.93;10.13;;;;;;;-3.91;66.39;94339.19;5009509;28;20267;-87
2023/12/04 08:10:09;;;;;;;15.23;10.03;;;;;;;-3.84;65.91;94304.31;5000325;28;20212;-88
2023/12/04 08:12:35;;;;;;;19.20;11.70;;;;;;;-3.78;65.62;94277.88;5012362;28;20651;-87
2023/12/04 08:15:03;;;;;;;14.13;10.47;;;;;;;-3.76;65.00;94246.69;5013847;28;20202;-88
2023/12/04 08:17:30;;;;;;;15.77;11.30;;;;;;;-3.70;64.83;94221.06;5014391;28;20276;-88
2023/12/04 08:19:58;;;;;;;16.07;10.73;;;;;;;-3.70;64.85;94210.19;5014535;28;20267;-87
2023/12/04 08:22:24;;;;;;;15.23;10.53;;;;;;;-3.70;64.71;94195.91;5000144;28;20195;-88
2023/12/04 08:24:51;;;;;;;14.47;10.93;;;;;;;-3.75;64.69;94190.44;5009772;28;20205;-88
2023/12/04 08:27:17;;;;;;;22.37;14.30;;;;;;;-4.01;68.07;94340.81;5014183;28;20226;-89
2023/12/04 08:29:44;;;;;;;42.40;26.90;;;;;;;-4.30;69.54;94410.13;5014857;28;20195;-88
2023/12/04 08:32:12;;;;;;;17.00;11.97;;;;;;;-4.66;70.67;94489.00;5014584;28;20204;-88
2023/12/04 08:34:39;;;;;;;16.53;11.93;;;;;;;-4.71;72.12;94572.16;5012561;28;20227;-88
2023/12/04 08:37:10;;;;;;;16.23;11.67;;;;;;;-4.55;71.71;94572.66;5010213;28;20619;-88
2023/12/04 08:39:37;;;;;;;19.27;13.43;;;;;;;-4.23;70.71;94555.25;5012642;28;20228;-88
2023/12/04 08:42:10;;;;;;;18.67;13.03;;;;;;;-3.97;69.49;94499.72;5012918;28;20215;-88
2023/12/04 08:44:37;;;;;;;16.50;11.93;;;;;;;-3.87;68.42;94430.25;5013430;28;20205;-87
2023/12/04 08:47:04;;;;;;;18.63;12.93;;;;;;;-3.75;67.68;94398.34;5013448;28;20226;-87
2023/12/04 08:49:34;;;;;;;18.40;12.60;;;;;;;-3.69;67.30;94358.44;5012915;28;20199;-87
2023/12/04 08:52:03;;;;;;;18.80;13.00;;;;;;;-3.64;66.33;94321.13;5012842;28;20720;-87
2023/12/04 08:54:31;;;;;;;18.23;13.50;;;;;;;-3.59;66.04;94303.16;5008775;28;20205;-87
2023/12/04 08:56:58;;;;;;;19.17;13.33;;;;;;;-3.51;65.87;94306.66;5013407;28;20229;-87
2023/12/04 08:59:28;;;;;;;19.13;14.10;;;;;;;-3.50;65.81;94304.97;5012425;28;20643;-88
2023/12/04 09:01:57;;;;;;;19.17;12.73;;;;;;;-3.43;65.99;94316.09;4992356;28;20210;-87
2023/12/04 09:04:26;;;;;;;19.83;13.83;;;;;;;-3.41;65.25;94273.22;4992940;28;20208;-87
2023/12/04 09:06:53;;;;;;;21.03;14.20;;;;;;;-3.56;67.69;94380.88;4993407;28;20241;-86
2023/12/04 09:09:19;;;;;;;20.57;14.50;;;;;;;-3.53;66.67;94337.91;5008942;28;20196;-87
2023/12/04 09:11:48;;;;;;;20.03;13.63;;;;;;;-3.51;66.24;94341.09;5013780;28;20214;-88
2023/12/04 09:14:15;;;;;;;19.27;13.37;;;;;;;-3.56;66.28;94293.66;5015681;28;20202;-88
2023/12/04 09:16:42;;;;;;;20.83;14.03;;;;;;;-3.41;65.77;94289.09;5015795;28;20233;-88
2023/12/04 09:19:09;;;;;;;18.80;13.77;;;;;;;-3.29;66.33;94325.88;5016099;28;20252;-87
2023/12/04 09:21:36;;;;;;;24.57;16.53;;;;;;;-3.26;66.31;94312.22;5016918;28;20209;-87
2023/12/04 09:24:05;;;;;;;18.80;13.83;;;;;;;-3.19;65.59;94299.03;5016672;28;20207;-87
2023/12/04 09:26:32;;;;;;;19.10;13.10;;;;;;;-3.08;65.50;94282.25;5013852;28;20195;-88
2023/12/04 09:28:59;;;;;;;19.37;13.60;;;;;;;-3.08;65.03;94245.31;5002861;28;20219;-87
2023/12/04 09:31:26;;;;;;;18.47;12.67;;;;;;;-3.11;65.43;94268.22;4995154;28;20584;-87
2023/12/04 09:33:52;;;;;;;19.80;12.93;;;;;;;-3.17;65.34;94266.19;5002538;28;20202;-87
2023/12/04 09:36:19;;;;;;;18.03;12.80;;;;;;;-3.14;65.22;94253.34;5015359;28;20210;-87
2023/12/04 09:38:47;;;;;;;19.67;13.63;;;;;;;-3.11;64.50;94224.63;5015934;28;20226;-87
2023/12/04 09:41:16;;;;;;;17.77;12.80;;;;;;;-3.11;64.84;94225.41;5016166;28;20204;-87
2023/12/04 09:43:45;;;;;;;18.20;12.97;;;;;;;-3.15;65.29;94265.13;5011405;28;20871;-87
2023/12/04 09:46:14;;;;;;;22.87;13.43;;;;;;;-3.08;64.87;94267.16;5014993;28;20633;-88
2023/12/04 09:48:42;;;;;;;18.43;13.40;;;;;;;-3.08;64.55;94247.81;5014293;28;20218;-88
2023/12/04 09:51:11;;;;;;;18.83;12.97;;;;;;;-3.12;64.33;94233.91;5015957;28;20245;-87
2023/12/04 09:53:40;;;;;;;19.60;14.40;;;;;;;-3.15;64.32;94208.97;5014789;28;20195;-87
2023/12/04 09:56:09;;;;;;;21.93;14.57;;;;;;;-3.22;64.17;94183.50;5014687;28;20698;-87
2023/12/04 09:58:40;;;;;;;18.97;13.63;;;;;;;-3.20;64.42;94193.44;5008684;28;20588;-88
2023/12/04 10:01:12;;;;;;;24.97;17.30;;;;;;;-3.20;64.85;94204.31;5009763;28;20203;-88
2023/12/04 10:03:41;;;;;;;26.47;18.67;;;;;;;-3.35;65.59;94230.75;5015781;28;20226;-88
2023/12/04 10:06:09;;;;;;;21.63;14.93;;;;;;;-3.28;66.32;94278.84;5015733;28;20256;-85
2023/12/04 10:08:37;;;;;;;21.73;14.43;;;;;;;-3.27;65.82;94272.91;5015729;28;20617;-87
2023/12/04 10:11:04;;;;;;;18.27;13.43;;;;;;;-3.19;66.01;94286.44;5015247;28;20210;-87
2023/12/04 10:13:31;;;;;;;17.77;13.33;;;;;;;-3.04;66.18;94289.41;5015355;28;20206;-88
2023/12/04 10:16:02;;;;;;;20.53;13.77;;;;;;;-2.89;65.51;94265.50;5009507;28;20233;-88
2023/12/04 10:18:33;;;;;;;19.60;14.20;;;;;;;-2.83;65.00;94221.38;4995429;28;20223;-87
2023/12/04 10:21:05;;;;;;;21.43;13.67;;;;;;;-2.78;64.86;94216.75;4995279;28;20574;-88
2023/12/04 10:23:39;;;;;;;20.37;14.00;;;;;;;-2.70;64.76;94204.31;5002094;28;20206;-88
2023/12/04 10:26:06;;;;;;;24.70;14.80;;;;;;;-2.99;65.03;94178.28;5010633;28;20194;-87
2023/12/04 10:28:40;;;;;;;19.90;13.93;;;;;;;-2.73;65.20;94209.63;5010207;28;20606;-88
2023/12/04 10:31:07;;;;;;;20.10;14.57;;;;;;;-2.56;65.21;94218.25;5008606;28;20500;-87
2023/12/04 10:33:34;;;;;;;19.77;13.97;;;;;;;-2.35;64.79;94208.84;5011460;28;20253;-88
2023/12/04 10:36:12;;;;;;;18.77;13.57;;;;;;;-2.19;65.23;94231.81;5011324;28;20567;-88
2023/12/04 10:38:39;;;;;;;18.07;13.53;;;;;;;-2.08;64.66;94224.09;5012077;28;20238;-87
2023/12/04 10:41:15;;;;;;;22.57;15.83;;;;;;;-2.06;63.93;94162.66;5014285;28;20195;-87
2023/12/04 10:43:48;;;;;;;20.90;14.47;;;;;;;-2.01;64.15;94183.22;5014186;28;20195;-87
2023/12/04 10:46:16;;;;;;;20.60;14.30;;;;;;;-1.94;64.63;94201.94;5011021;28;20195;-88
2023/12/04 10:48:45;;;;;;;21.80;15.30;;;;;;;-1.91;65.54;94239.47;5003613;28;20223;-88
2023/12/04 10:51:13;;;;;;;55.47;33.73;;;;;;;-1.94;65.71;94240.56;5011075;28;20690;-88
2023/12/04 10:53:41;;;;;;;28.07;19.43;;;;;;;-1.88;65.26;94237.47;5013149;28;20206;-88
2023/12/04 10:56:10;;;;;;;22.33;14.93;;;;;;;-1.96;64.74;94208.84;5012817;28;20242;-88
2023/12/04 10:58:39;;;;;;;17.13;13.17;;;;;;;-2.08;64.90;94198.88;5009903;28;20230;-88
2023/12/04 11:01:22;;;;;;;17.57;13.90;;;;;;;-2.31;66.52;94262.31;5014846;28;20195;-88
2023/12/04 11:03:49;;;;;;;19.50;13.97;;;;;;;-2.22;66.85;94304.34;5007508;28;20207;-87
2023/12/04 11:06:21;;;;;;;18.13;13.70;;;;;;;-2.13;66.89;94301.06;5012755;28;20587;-87
2023/12/04 11:08:50;;;;;;;18.53;13.90;;;;;;;-2.02;66.81;94297.63;5014387;28;20226;-88
2023/12/04 11:11:27;;;;;;;19.53;13.80;;;;;;;-2.11;67.13;94314.31;5012573;28;20214;-87
2023/12/04 11:14:01;;;;;;;18.93;13.83;;;;;;;-2.04;67.48;94338.09;5012836;28;20194;-87
2023/12/04 11:16:38;;;;;;;20.00;14.20;;;;;;;-1.97;67.45;94330.81;5014122;28;20230;-87
2023/12/04 11:19:12;;;;;;;19.47;13.53;;;;;;;-1.85;67.81;94354.97;5011453;28;20748;-87
2023/12/04 11:21:46;;;;;;;15.10;10.80;;;;;;;-1.83;67.19;94311.03;5012805;28;20210;-87
2023/12/04 11:24:19;;;;;;;13.97;10.87;;;;;;;-1.83;67.20;94290.06;5013461;28;20286;-88
2023/12/04 11:26:49;;;;;;;12.97;9.80;;;;;;;-1.90;69.05;94379.75;5013786;28;20229;-88
2023/12/04 11:29:19;;;;;;;13.30;10.03;;;;;;;-1.78;68.39;94343.44;5013624;28;20274;-88
2023/12/04 11:31:46;;;;;;;11.00;8.33;;;;;;;-1.65;67.98;94328.00;5014956;28;20199;-87